sensor_id;sensor_type;location;lat;lon;timestamp;P1;durP1;ratioP1;P2;durP2;ratioP2
44766;SDS011;30487;48.716;9.272;2023-08-17T00:02:04;8.15;;;4.32;;
44766;SDS011;30487;48.716;9.272;2023-08-17T00:04:29;10.02;;;4.55;;
44766;SDS011;30487;48.716;9.272;2023-08-17T00:06:55;9.20;;;4.30;;
44766;SDS011;30487;48.716;9.272;2023-08-17T00:09:21;10.20;;;4.13;;
44766;SDS011;30487;48.716;9.272;2023-08-17T00:11:47;7.63;;;4.47;;
44766;SDS011;30487;48.716;9.272;2023-08-17T00:14:12;8.25;;;4.05;;
44766;SDS011;30487;48.716;9.272;2023-08-17T00:16:38;7.15;;;4.30;;
44766;SDS011;30487;48.716;9.272;2023-08-17T00:19:03;6.15;;;3.80;;
44766;SDS011;30487;48.716;9.272;2023-08-17T00:21:29;8.13;;;4.47;;
44766;SDS011;30487;48.716;9.272;2023-08-17T00:23:54;6.63;;;4.07;;
44766;SDS011;30487;48.716;9.272;2023-08-17T00:26:21;8.65;;;4.43;;
44766;SDS011;30487;48.716;9.272;2023-08-17T00:28:47;6.35;;;4.13;;
44766;SDS011;30487;48.716;9.272;2023-08-17T00:31:12;7.45;;;4.20;;
44766;SDS011;30487;48.716;9.272;2023-08-17T00:33:38;6.95;;;4.38;;
44766;SDS011;30487;48.716;9.272;2023-08-17T00:36:03;7.47;;;4.38;;
44766;SDS011;30487;48.716;9.272;2023-08-17T00:38:29;6.53;;;4.50;;
44766;SDS011;30487;48.716;9.272;2023-08-17T00:40:55;9.77;;;4.90;;
44766;SDS011;30487;48.716;9.272;2023-08-17T00:43:20;10.43;;;4.35;;
44766;SDS011;30487;48.716;9.272;2023-08-17T00:45:46;9.75;;;4.80;;
44766;SDS011;30487;48.716;9.272;2023-08-17T00:48:12;8.90;;;5.40;;
44766;SDS011;30487;48.716;9.272;2023-08-17T00:50:38;9.63;;;5.47;;
44766;SDS011;30487;48.716;9.272;2023-08-17T00:53:05;11.57;;;5.00;;
44766;SDS011;30487;48.716;9.272;2023-08-17T00:55:32;8.80;;;4.80;;
44766;SDS011;30487;48.716;9.272;2023-08-17T00:57:58;9.23;;;5.93;;
44766;SDS011;30487;48.716;9.272;2023-08-17T01:00:24;11.70;;;6.45;;
44766;SDS011;30487;48.716;9.272;2023-08-17T01:02:52;16.80;;;6.90;;
44766;SDS011;30487;48.716;9.272;2023-08-17T01:05:19;13.88;;;7.25;;
44766;SDS011;30487;48.716;9.272;2023-08-17T01:07:44;13.02;;;7.18;;
44766;SDS011;30487;48.716;9.272;2023-08-17T01:10:10;13.90;;;7.95;;
44766;SDS011;30487;48.716;9.272;2023-08-17T01:15:32;20.35;;;8.82;;
44766;SDS011;30487;48.716;9.272;2023-08-17T01:18:44;13.73;;;9.23;;
44766;SDS011;30487;48.716;9.272;2023-08-17T01:20:55;14.18;;;9.07;;
44766;SDS011;30487;48.716;9.272;2023-08-17T01:23:22;14.13;;;9.43;;
44766;SDS011;30487;48.716;9.272;2023-08-17T01:25:47;13.45;;;9.32;;
44766;SDS011;30487;48.716;9.272;2023-08-17T01:28:13;16.55;;;10.00;;
44766;SDS011;30487;48.716;9.272;2023-08-17T01:31:01;16.63;;;10.45;;
44766;SDS011;30487;48.716;9.272;2023-08-17T01:33:35;15.48;;;10.18;;
44766;SDS011;30487;48.716;9.272;2023-08-17T01:36:11;15.00;;;10.25;;
44766;SDS011;30487;48.716;9.272;2023-08-17T01:38:45;16.63;;;10.93;;
44766;SDS011;30487;48.716;9.272;2023-08-17T01:41:11;18.10;;;10.70;;
44766;SDS011;30487;48.716;9.272;2023-08-17T01:43:41;17.92;;;10.95;;
44766;SDS011;30487;48.716;9.272;2023-08-17T01:46:12;17.38;;;10.27;;
44766;SDS011;30487;48.716;9.272;2023-08-17T01:48:39;16.40;;;10.77;;
44766;SDS011;30487;48.716;9.272;2023-08-17T01:51:05;18.13;;;11.23;;
44766;SDS011;30487;48.716;9.272;2023-08-17T01:53:30;16.42;;;10.88;;
44766;SDS011;30487;48.716;9.272;2023-08-17T01:55:56;17.58;;;11.10;;
44766;SDS011;30487;48.716;9.272;2023-08-17T01:58:21;16.95;;;11.00;;
44766;SDS011;30487;48.716;9.272;2023-08-17T02:00:47;15.55;;;10.65;;
44766;SDS011;30487;48.716;9.272;2023-08-17T02:03:12;18.25;;;10.85;;
44766;SDS011;30487;48.716;9.272;2023-08-17T02:05:38;20.42;;;11.88;;
44766;SDS011;30487;48.716;9.272;2023-08-17T02:08:03;18.00;;;11.65;;
44766;SDS011;30487;48.716;9.272;2023-08-17T02:10:29;17.85;;;11.65;;
44766;SDS011;30487;48.716;9.272;2023-08-17T02:12:54;19.23;;;12.45;;
44766;SDS011;30487;48.716;9.272;2023-08-17T02:15:20;20.52;;;11.57;;
44766;SDS011;30487;48.716;9.272;2023-08-17T02:17:45;21.33;;;12.18;;
44766;SDS011;30487;48.716;9.272;2023-08-17T02:20:11;19.80;;;13.13;;
44766;SDS011;30487;48.716;9.272;2023-08-17T02:22:37;22.90;;;13.52;;
44766;SDS011;30487;48.716;9.272;2023-08-17T02:25:03;22.73;;;13.32;;
44766;SDS011;30487;48.716;9.272;2023-08-17T02:27:29;25.73;;;14.30;;
44766;SDS011;30487;48.716;9.272;2023-08-17T02:29:56;22.65;;;13.85;;
44766;SDS011;30487;48.716;9.272;2023-08-17T02:32:22;21.33;;;13.23;;
44766;SDS011;30487;48.716;9.272;2023-08-17T02:34:47;23.13;;;12.88;;
44766;SDS011;30487;48.716;9.272;2023-08-17T02:37:13;21.50;;;12.32;;
44766;SDS011;30487;48.716;9.272;2023-08-17T02:39:39;19.85;;;11.68;;
44766;SDS011;30487;48.716;9.272;2023-08-17T02:42:05;20.42;;;11.48;;
44766;SDS011;30487;48.716;9.272;2023-08-17T02:44:30;17.50;;;11.55;;
44766;SDS011;30487;48.716;9.272;2023-08-17T02:46:56;22.73;;;11.93;;
44766;SDS011;30487;48.716;9.272;2023-08-17T02:49:21;21.27;;;12.52;;
44766;SDS011;30487;48.716;9.272;2023-08-17T02:51:47;20.73;;;12.75;;
44766;SDS011;30487;48.716;9.272;2023-08-17T02:54:12;19.80;;;12.25;;
44766;SDS011;30487;48.716;9.272;2023-08-17T02:56:38;18.38;;;12.07;;
44766;SDS011;30487;48.716;9.272;2023-08-17T02:59:03;18.60;;;12.10;;
44766;SDS011;30487;48.716;9.272;2023-08-17T03:01:29;17.10;;;12.52;;
44766;SDS011;30487;48.716;9.272;2023-08-17T03:03:56;20.30;;;11.82;;
44766;SDS011;30487;48.716;9.272;2023-08-17T03:06:21;19.92;;;11.90;;
44766;SDS011;30487;48.716;9.272;2023-08-17T03:08:47;20.83;;;12.00;;
44766;SDS011;30487;48.716;9.272;2023-08-17T03:11:12;17.45;;;11.88;;
44766;SDS011;30487;48.716;9.272;2023-08-17T03:13:38;16.63;;;11.25;;
44766;SDS011;30487;48.716;9.272;2023-08-17T03:16:03;21.02;;;11.73;;
44766;SDS011;30487;48.716;9.272;2023-08-17T03:18:29;21.70;;;11.98;;
44766;SDS011;30487;48.716;9.272;2023-08-17T03:20:54;16.40;;;11.10;;
44766;SDS011;30487;48.716;9.272;2023-08-17T03:23:20;17.27;;;11.52;;
44766;SDS011;30487;48.716;9.272;2023-08-17T03:25:46;19.80;;;12.35;;
44766;SDS011;30487;48.716;9.272;2023-08-17T03:28:16;18.70;;;11.70;;
44766;SDS011;30487;48.716;9.272;2023-08-17T03:30:41;18.17;;;11.10;;
44766;SDS011;30487;48.716;9.272;2023-08-17T03:33:07;16.70;;;11.32;;
44766;SDS011;30487;48.716;9.272;2023-08-17T03:35:33;19.23;;;11.38;;
44766;SDS011;30487;48.716;9.272;2023-08-17T03:37:58;17.05;;;11.00;;
44766;SDS011;30487;48.716;9.272;2023-08-17T03:40:24;17.65;;;11.35;;
44766;SDS011;30487;48.716;9.272;2023-08-17T03:42:49;16.77;;;11.10;;
44766;SDS011;30487;48.716;9.272;2023-08-17T03:45:15;18.70;;;10.88;;
44766;SDS011;30487;48.716;9.272;2023-08-17T03:47:40;16.27;;;10.82;;
44766;SDS011;30487;48.716;9.272;2023-08-17T03:50:08;13.60;;;9.75;;
44766;SDS011;30487;48.716;9.272;2023-08-17T03:52:34;13.13;;;9.40;;
44766;SDS011;30487;48.716;9.272;2023-08-17T03:55:00;19.85;;;11.55;;
44766;SDS011;30487;48.716;9.272;2023-08-17T03:57:25;19.40;;;11.38;;
44766;SDS011;30487;48.716;9.272;2023-08-17T03:59:51;16.15;;;10.98;;
44766;SDS011;30487;48.716;9.272;2023-08-17T04:02:16;18.27;;;10.82;;
44766;SDS011;30487;48.716;9.272;2023-08-17T04:04:42;16.52;;;10.40;;
44766;SDS011;30487;48.716;9.272;2023-08-17T04:07:07;16.40;;;11.00;;
44766;SDS011;30487;48.716;9.272;2023-08-17T04:09:33;16.90;;;10.52;;
44766;SDS011;30487;48.716;9.272;2023-08-17T04:11:59;13.57;;;8.98;;
44766;SDS011;30487;48.716;9.272;2023-08-17T04:14:24;12.85;;;8.82;;
44766;SDS011;30487;48.716;9.272;2023-08-17T04:16:50;16.52;;;10.20;;
44766;SDS011;30487;48.716;9.272;2023-08-17T04:19:16;18.23;;;11.05;;
44766;SDS011;30487;48.716;9.272;2023-08-17T04:21:42;16.00;;;10.27;;
44766;SDS011;30487;48.716;9.272;2023-08-17T04:24:07;19.52;;;10.60;;
44766;SDS011;30487;48.716;9.272;2023-08-17T04:26:33;19.17;;;10.65;;
44766;SDS011;30487;48.716;9.272;2023-08-17T04:28:58;16.52;;;9.90;;
44766;SDS011;30487;48.716;9.272;2023-08-17T04:31:24;20.55;;;11.20;;
44766;SDS011;30487;48.716;9.272;2023-08-17T04:33:49;18.63;;;11.35;;
44766;SDS011;30487;48.716;9.272;2023-08-17T04:36:16;21.27;;;11.48;;
44766;SDS011;30487;48.716;9.272;2023-08-17T04:38:42;20.67;;;12.82;;
44766;SDS011;30487;48.716;9.272;2023-08-17T04:41:07;22.48;;;12.45;;
44766;SDS011;30487;48.716;9.272;2023-08-17T04:43:33;20.48;;;11.10;;
44766;SDS011;30487;48.716;9.272;2023-08-17T04:45:58;29.25;;;12.57;;
44766;SDS011;30487;48.716;9.272;2023-08-17T04:48:24;17.88;;;12.05;;
44766;SDS011;30487;48.716;9.272;2023-08-17T04:50:50;18.05;;;11.23;;
44766;SDS011;30487;48.716;9.272;2023-08-17T04:53:16;20.17;;;12.02;;
44766;SDS011;30487;48.716;9.272;2023-08-17T04:55:42;18.98;;;12.25;;
44766;SDS011;30487;48.716;9.272;2023-08-17T04:58:07;19.67;;;12.40;;
44766;SDS011;30487;48.716;9.272;2023-08-17T05:00:33;22.10;;;12.65;;
44766;SDS011;30487;48.716;9.272;2023-08-17T05:02:59;20.08;;;11.98;;
44766;SDS011;30487;48.716;9.272;2023-08-17T05:05:24;24.75;;;12.90;;
44766;SDS011;30487;48.716;9.272;2023-08-17T05:07:51;20.90;;;12.27;;
44766;SDS011;30487;48.716;9.272;2023-08-17T05:10:17;17.48;;;11.35;;
44766;SDS011;30487;48.716;9.272;2023-08-17T05:12:43;19.95;;;11.35;;
44766;SDS011;30487;48.716;9.272;2023-08-17T05:15:09;17.52;;;11.32;;
44766;SDS011;30487;48.716;9.272;2023-08-17T05:17:34;17.48;;;10.98;;
44766;SDS011;30487;48.716;9.272;2023-08-17T05:20:00;18.48;;;12.00;;
44766;SDS011;30487;48.716;9.272;2023-08-17T05:22:26;18.90;;;12.38;;
44766;SDS011;30487;48.716;9.272;2023-08-17T05:24:52;20.30;;;12.43;;
44766;SDS011;30487;48.716;9.272;2023-08-17T05:27:18;17.95;;;11.30;;
44766;SDS011;30487;48.716;9.272;2023-08-17T05:29:43;19.83;;;11.32;;
44766;SDS011;30487;48.716;9.272;2023-08-17T05:32:09;19.42;;;12.73;;
44766;SDS011;30487;48.716;9.272;2023-08-17T05:34:34;20.20;;;12.05;;
44766;SDS011;30487;48.716;9.272;2023-08-17T05:37:00;17.13;;;11.55;;
44766;SDS011;30487;48.716;9.272;2023-08-17T05:39:26;19.08;;;11.82;;
44766;SDS011;30487;48.716;9.272;2023-08-17T05:41:51;19.77;;;11.13;;
44766;SDS011;30487;48.716;9.272;2023-08-17T05:44:17;17.98;;;11.45;;
44766;SDS011;30487;48.716;9.272;2023-08-17T05:46:43;20.85;;;11.32;;
44766;SDS011;30487;48.716;9.272;2023-08-17T05:49:08;16.70;;;11.25;;
44766;SDS011;30487;48.716;9.272;2023-08-17T05:51:34;23.17;;;11.75;;
44766;SDS011;30487;48.716;9.272;2023-08-17T05:53:59;17.15;;;11.20;;
44766;SDS011;30487;48.716;9.272;2023-08-17T05:56:25;19.45;;;12.52;;
44766;SDS011;30487;48.716;9.272;2023-08-17T05:58:50;21.67;;;11.60;;
44766;SDS011;30487;48.716;9.272;2023-08-17T06:01:16;21.48;;;11.80;;
44766;SDS011;30487;48.716;9.272;2023-08-17T06:03:42;18.77;;;12.00;;
44766;SDS011;30487;48.716;9.272;2023-08-17T06:06:07;17.80;;;11.93;;
44766;SDS011;30487;48.716;9.272;2023-08-17T06:08:34;17.70;;;12.02;;
44766;SDS011;30487;48.716;9.272;2023-08-17T06:10:59;25.45;;;12.57;;
44766;SDS011;30487;48.716;9.272;2023-08-17T06:13:25;20.27;;;12.10;;
44766;SDS011;30487;48.716;9.272;2023-08-17T06:15:51;18.02;;;11.63;;
44766;SDS011;30487;48.716;9.272;2023-08-17T06:18:16;26.52;;;15.18;;
44766;SDS011;30487;48.716;9.272;2023-08-17T06:20:42;28.05;;;16.88;;
44766;SDS011;30487;48.716;9.272;2023-08-17T06:23:08;27.20;;;15.93;;
44766;SDS011;30487;48.716;9.272;2023-08-17T06:25:33;26.77;;;15.68;;
44766;SDS011;30487;48.716;9.272;2023-08-17T06:27:59;27.48;;;16.45;;
44766;SDS011;30487;48.716;9.272;2023-08-17T06:30:25;27.05;;;15.55;;
44766;SDS011;30487;48.716;9.272;2023-08-17T06:32:51;26.80;;;14.77;;
44766;SDS011;30487;48.716;9.272;2023-08-17T06:35:16;19.60;;;13.05;;
44766;SDS011;30487;48.716;9.272;2023-08-17T06:37:42;22.73;;;14.40;;
44766;SDS011;30487;48.716;9.272;2023-08-17T06:40:08;20.95;;;12.70;;
44766;SDS011;30487;48.716;9.272;2023-08-17T06:42:34;22.48;;;13.48;;
44766;SDS011;30487;48.716;9.272;2023-08-17T06:45:00;22.92;;;13.70;;
44766;SDS011;30487;48.716;9.272;2023-08-17T06:47:26;23.67;;;14.73;;
44766;SDS011;30487;48.716;9.272;2023-08-17T06:49:51;22.30;;;13.20;;
44766;SDS011;30487;48.716;9.272;2023-08-17T06:52:17;23.10;;;13.70;;
44766;SDS011;30487;48.716;9.272;2023-08-17T06:54:43;18.02;;;11.85;;
44766;SDS011;30487;48.716;9.272;2023-08-17T06:57:08;22.58;;;13.82;;
44766;SDS011;30487;48.716;9.272;2023-08-17T06:59:34;24.20;;;13.63;;
44766;SDS011;30487;48.716;9.272;2023-08-17T07:02:00;25.27;;;13.48;;
44766;SDS011;30487;48.716;9.272;2023-08-17T07:04:25;23.80;;;14.15;;
44766;SDS011;30487;48.716;9.272;2023-08-17T07:06:51;18.40;;;12.75;;
44766;SDS011;30487;48.716;9.272;2023-08-17T07:09:17;23.02;;;13.75;;
44766;SDS011;30487;48.716;9.272;2023-08-17T07:11:42;20.40;;;12.95;;
44766;SDS011;30487;48.716;9.272;2023-08-17T07:14:08;21.77;;;13.70;;
44766;SDS011;30487;48.716;9.272;2023-08-17T07:16:33;23.73;;;15.32;;
44766;SDS011;30487;48.716;9.272;2023-08-17T07:18:59;22.45;;;14.32;;
44766;SDS011;30487;48.716;9.272;2023-08-17T07:21:25;23.67;;;13.93;;
44766;SDS011;30487;48.716;9.272;2023-08-17T07:23:51;26.77;;;15.88;;
44766;SDS011;30487;48.716;9.272;2023-08-17T07:26:19;21.30;;;13.48;;
44766;SDS011;30487;48.716;9.272;2023-08-17T07:28:45;19.95;;;12.52;;
44766;SDS011;30487;48.716;9.272;2023-08-17T07:31:11;26.02;;;16.42;;
44766;SDS011;30487;48.716;9.272;2023-08-17T07:33:37;26.20;;;15.32;;
44766;SDS011;30487;48.716;9.272;2023-08-17T07:36:03;24.40;;;15.57;;
44766;SDS011;30487;48.716;9.272;2023-08-17T07:38:29;29.52;;;16.15;;
44766;SDS011;30487;48.716;9.272;2023-08-17T07:40:55;26.90;;;16.50;;
44766;SDS011;30487;48.716;9.272;2023-08-17T07:43:21;24.85;;;15.15;;
44766;SDS011;30487;48.716;9.272;2023-08-17T07:45:52;24.52;;;15.02;;
44766;SDS011;30487;48.716;9.272;2023-08-17T07:48:21;30.02;;;16.13;;
44766;SDS011;30487;48.716;9.272;2023-08-17T07:50:50;28.65;;;16.10;;
44766;SDS011;30487;48.716;9.272;2023-08-17T07:53:17;24.80;;;14.38;;
44766;SDS011;30487;48.716;9.272;2023-08-17T07:55:43;26.20;;;14.57;;
44766;SDS011;30487;48.716;9.272;2023-08-17T07:58:08;25.27;;;14.88;;
44766;SDS011;30487;48.716;9.272;2023-08-17T08:00:34;23.50;;;13.98;;
44766;SDS011;30487;48.716;9.272;2023-08-17T08:02:59;23.63;;;13.95;;
44766;SDS011;30487;48.716;9.272;2023-08-17T08:05:25;24.00;;;14.20;;
44766;SDS011;30487;48.716;9.272;2023-08-17T08:07:51;25.02;;;14.65;;
44766;SDS011;30487;48.716;9.272;2023-08-17T08:10:17;24.05;;;14.90;;
44766;SDS011;30487;48.716;9.272;2023-08-17T08:12:42;25.83;;;14.27;;
44766;SDS011;30487;48.716;9.272;2023-08-17T08:15:08;23.88;;;14.70;;
44766;SDS011;30487;48.716;9.272;2023-08-17T08:17:34;19.65;;;12.38;;
44766;SDS011;30487;48.716;9.272;2023-08-17T08:20:00;20.98;;;13.60;;
44766;SDS011;30487;48.716;9.272;2023-08-17T08:22:26;20.50;;;12.70;;
44766;SDS011;30487;48.716;9.272;2023-08-17T08:24:52;20.85;;;12.32;;
44766;SDS011;30487;48.716;9.272;2023-08-17T08:27:17;22.83;;;12.70;;
44766;SDS011;30487;48.716;9.272;2023-08-17T08:29:43;18.88;;;11.13;;
44766;SDS011;30487;48.716;9.272;2023-08-17T08:32:08;21.10;;;12.70;;
44766;SDS011;30487;48.716;9.272;2023-08-17T08:34:34;20.05;;;11.98;;
44766;SDS011;30487;48.716;9.272;2023-08-17T08:37:00;18.65;;;10.95;;
44766;SDS011;30487;48.716;9.272;2023-08-17T08:39:25;17.40;;;11.13;;
44766;SDS011;30487;48.716;9.272;2023-08-17T08:41:52;19.63;;;11.50;;
44766;SDS011;30487;48.716;9.272;2023-08-17T08:44:18;18.30;;;10.43;;
44766;SDS011;30487;48.716;9.272;2023-08-17T08:46:44;18.13;;;10.60;;
44766;SDS011;30487;48.716;9.272;2023-08-17T08:49:11;16.23;;;9.88;;
44766;SDS011;30487;48.716;9.272;2023-08-17T08:51:41;16.13;;;10.27;;
44766;SDS011;30487;48.716;9.272;2023-08-17T08:54:10;18.75;;;11.90;;
44766;SDS011;30487;48.716;9.272;2023-08-17T08:56:38;14.23;;;9.90;;
44766;SDS011;30487;48.716;9.272;2023-08-17T08:59:07;20.65;;;9.50;;
44766;SDS011;30487;48.716;9.272;2023-08-17T09:01:34;16.05;;;9.27;;
44766;SDS011;30487;48.716;9.272;2023-08-17T09:04:00;12.70;;;8.73;;
44766;SDS011;30487;48.716;9.272;2023-08-17T09:06:26;13.90;;;7.45;;
44766;SDS011;30487;48.716;9.272;2023-08-17T09:08:54;12.65;;;8.45;;
44766;SDS011;30487;48.716;9.272;2023-08-17T09:11:20;12.68;;;7.57;;
44766;SDS011;30487;48.716;9.272;2023-08-17T09:13:45;11.35;;;6.90;;
44766;SDS011;30487;48.716;9.272;2023-08-17T09:16:11;11.63;;;7.03;;
44766;SDS011;30487;48.716;9.272;2023-08-17T09:18:36;11.80;;;6.47;;
44766;SDS011;30487;48.716;9.272;2023-08-17T09:21:02;9.65;;;6.30;;
44766;SDS011;30487;48.716;9.272;2023-08-17T09:23:28;8.70;;;5.68;;
44766;SDS011;30487;48.716;9.272;2023-08-17T09:25:54;11.15;;;5.70;;
44766;SDS011;30487;48.716;9.272;2023-08-17T09:28:23;8.98;;;5.88;;
44766;SDS011;30487;48.716;9.272;2023-08-17T09:30:49;9.13;;;6.00;;
44766;SDS011;30487;48.716;9.272;2023-08-17T09:33:19;8.32;;;4.97;;
44766;SDS011;30487;48.716;9.272;2023-08-17T09:35:52;7.90;;;5.63;;
44766;SDS011;30487;48.716;9.272;2023-08-17T09:38:19;9.43;;;4.40;;
44766;SDS011;30487;48.716;9.272;2023-08-17T09:40:45;6.75;;;4.95;;
44766;SDS011;30487;48.716;9.272;2023-08-17T09:43:12;6.72;;;4.50;;
44766;SDS011;30487;48.716;9.272;2023-08-17T09:45:39;8.48;;;4.50;;
44766;SDS011;30487;48.716;9.272;2023-08-17T09:48:06;9.25;;;5.40;;
44766;SDS011;30487;48.716;9.272;2023-08-17T09:50:33;7.93;;;4.80;;
44766;SDS011;30487;48.716;9.272;2023-08-17T09:52:59;7.85;;;5.15;;
44766;SDS011;30487;48.716;9.272;2023-08-17T09:55:26;8.32;;;5.25;;
44766;SDS011;30487;48.716;9.272;2023-08-17T09:57:51;6.65;;;4.97;;
44766;SDS011;30487;48.716;9.272;2023-08-17T10:00:20;8.02;;;6.00;;
44766;SDS011;30487;48.716;9.272;2023-08-17T10:02:49;7.32;;;5.13;;
44766;SDS011;30487;48.716;9.272;2023-08-17T10:05:17;7.50;;;5.15;;
44766;SDS011;30487;48.716;9.272;2023-08-17T10:07:46;8.88;;;5.25;;
44766;SDS011;30487;48.716;9.272;2023-08-17T10:10:16;7.97;;;5.45;;
44766;SDS011;30487;48.716;9.272;2023-08-17T10:13:09;8.70;;;5.55;;
44766;SDS011;30487;48.716;9.272;2023-08-17T10:15:34;6.10;;;3.83;;
44766;SDS011;30487;48.716;9.272;2023-08-17T10:20:42;7.22;;;5.40;;
44766;SDS011;30487;48.716;9.272;2023-08-17T10:25:42;8.60;;;4.90;;
44766;SDS011;30487;48.716;9.272;2023-08-17T10:28:11;10.68;;;5.20;;
44766;SDS011;30487;48.716;9.272;2023-08-17T10:30:37;8.25;;;4.53;;
44766;SDS011;30487;48.716;9.272;2023-08-17T10:33:05;8.73;;;4.30;;
44766;SDS011;30487;48.716;9.272;2023-08-17T10:35:31;5.97;;;4.28;;
44766;SDS011;30487;48.716;9.272;2023-08-17T10:37:58;7.80;;;4.40;;
44766;SDS011;30487;48.716;9.272;2023-08-17T10:40:28;5.38;;;3.58;;
44766;SDS011;30487;48.716;9.272;2023-08-17T10:42:59;10.77;;;3.97;;
44766;SDS011;30487;48.716;9.272;2023-08-17T10:45:25;7.43;;;4.03;;
44766;SDS011;30487;48.716;9.272;2023-08-17T10:47:59;8.60;;;3.95;;
44766;SDS011;30487;48.716;9.272;2023-08-17T10:50:25;7.40;;;3.80;;
44766;SDS011;30487;48.716;9.272;2023-08-17T10:52:53;7.78;;;4.07;;
44766;SDS011;30487;48.716;9.272;2023-08-17T10:55:34;10.40;;;4.03;;
44766;SDS011;30487;48.716;9.272;2023-08-17T10:58:01;6.47;;;3.67;;
44766;SDS011;30487;48.716;9.272;2023-08-17T11:00:34;7.80;;;4.75;;
44766;SDS011;30487;48.716;9.272;2023-08-17T11:03:08;8.35;;;4.45;;
44766;SDS011;30487;48.716;9.272;2023-08-17T11:05:43;5.95;;;3.85;;
44766;SDS011;30487;48.716;9.272;2023-08-17T11:08:38;6.32;;;3.60;;
44766;SDS011;30487;48.716;9.272;2023-08-17T11:11:13;6.05;;;3.90;;
44766;SDS011;30487;48.716;9.272;2023-08-17T11:13:40;7.57;;;4.32;;
44766;SDS011;30487;48.716;9.272;2023-08-17T11:16:07;5.57;;;3.60;;
44766;SDS011;30487;48.716;9.272;2023-08-17T11:18:34;9.40;;;4.20;;
44766;SDS011;30487;48.716;9.272;2023-08-17T11:21:01;6.57;;;3.80;;
44766;SDS011;30487;48.716;9.272;2023-08-17T11:23:31;7.18;;;3.60;;
44766;SDS011;30487;48.716;9.272;2023-08-17T11:25:58;6.95;;;3.40;;
44766;SDS011;30487;48.716;9.272;2023-08-17T11:28:24;5.30;;;3.67;;
44766;SDS011;30487;48.716;9.272;2023-08-17T11:30:58;4.70;;;3.53;;
44766;SDS011;30487;48.716;9.272;2023-08-17T11:33:25;4.97;;;3.70;;
44766;SDS011;30487;48.716;9.272;2023-08-17T11:35:53;5.18;;;3.55;;
44766;SDS011;30487;48.716;9.272;2023-08-17T11:38:23;5.32;;;3.50;;
44766;SDS011;30487;48.716;9.272;2023-08-17T11:40:49;5.38;;;3.92;;
44766;SDS011;30487;48.716;9.272;2023-08-17T11:43:15;4.93;;;3.30;;
44766;SDS011;30487;48.716;9.272;2023-08-17T11:45:41;4.97;;;3.58;;
44766;SDS011;30487;48.716;9.272;2023-08-17T11:48:07;6.15;;;4.00;;
44766;SDS011;30487;48.716;9.272;2023-08-17T11:50:34;6.78;;;3.20;;
44766;SDS011;30487;48.716;9.272;2023-08-17T11:53:00;6.72;;;3.85;;
44766;SDS011;30487;48.716;9.272;2023-08-17T11:55:26;7.22;;;3.97;;
44766;SDS011;30487;48.716;9.272;2023-08-17T11:57:52;4.68;;;3.60;;
44766;SDS011;30487;48.716;9.272;2023-08-17T12:00:18;5.05;;;4.10;;
44766;SDS011;30487;48.716;9.272;2023-08-17T12:02:48;6.35;;;3.50;;
44766;SDS011;30487;48.716;9.272;2023-08-17T12:05:24;6.50;;;3.58;;
44766;SDS011;30487;48.716;9.272;2023-08-17T12:07:54;5.63;;;3.55;;
44766;SDS011;30487;48.716;9.272;2023-08-17T12:10:19;6.80;;;3.40;;
44766;SDS011;30487;48.716;9.272;2023-08-17T12:12:47;6.35;;;3.75;;
44766;SDS011;30487;48.716;9.272;2023-08-17T12:15:13;5.30;;;3.47;;
44766;SDS011;30487;48.716;9.272;2023-08-17T12:17:46;4.93;;;3.58;;
44766;SDS011;30487;48.716;9.272;2023-08-17T12:20:16;6.70;;;4.72;;
44766;SDS011;30487;48.716;9.272;2023-08-17T12:22:43;9.13;;;4.10;;
44766;SDS011;30487;48.716;9.272;2023-08-17T12:25:09;8.38;;;4.97;;
44766;SDS011;30487;48.716;9.272;2023-08-17T12:27:35;7.80;;;4.93;;
44766;SDS011;30487;48.716;9.272;2023-08-17T12:30:01;9.02;;;5.40;;
44766;SDS011;30487;48.716;9.272;2023-08-17T12:32:26;9.95;;;5.47;;
44766;SDS011;30487;48.716;9.272;2023-08-17T12:34:52;10.80;;;6.00;;
44766;SDS011;30487;48.716;9.272;2023-08-17T12:37:18;8.13;;;5.60;;
44766;SDS011;30487;48.716;9.272;2023-08-17T12:39:46;8.45;;;6.20;;
44766;SDS011;30487;48.716;9.272;2023-08-17T12:42:12;8.60;;;5.72;;
44766;SDS011;30487;48.716;9.272;2023-08-17T12:44:39;9.65;;;6.10;;
44766;SDS011;30487;48.716;9.272;2023-08-17T12:47:05;8.52;;;5.80;;
44766;SDS011;30487;48.716;9.272;2023-08-17T12:49:30;9.35;;;6.13;;
44766;SDS011;30487;48.716;9.272;2023-08-17T12:51:56;10.00;;;6.07;;
44766;SDS011;30487;48.716;9.272;2023-08-17T12:54:22;8.20;;;6.28;;
44766;SDS011;30487;48.716;9.272;2023-08-17T12:56:47;10.75;;;6.28;;
44766;SDS011;30487;48.716;9.272;2023-08-17T12:59:13;11.90;;;7.13;;
44766;SDS011;30487;48.716;9.272;2023-08-17T13:01:38;11.90;;;7.03;;
44766;SDS011;30487;48.716;9.272;2023-08-17T13:04:04;10.38;;;6.85;;
44766;SDS011;30487;48.716;9.272;2023-08-17T13:06:31;15.77;;;7.20;;
44766;SDS011;30487;48.716;9.272;2023-08-17T13:08:56;8.85;;;6.35;;
44766;SDS011;30487;48.716;9.272;2023-08-17T13:11:22;11.88;;;7.38;;
44766;SDS011;30487;48.716;9.272;2023-08-17T13:13:49;9.45;;;7.03;;
44766;SDS011;30487;48.716;9.272;2023-08-17T13:16:14;12.25;;;6.85;;
44766;SDS011;30487;48.716;9.272;2023-08-17T13:18:40;11.38;;;7.22;;
44766;SDS011;30487;48.716;9.272;2023-08-17T13:21:05;11.90;;;6.90;;
44766;SDS011;30487;48.716;9.272;2023-08-17T13:23:31;8.73;;;6.75;;
44766;SDS011;30487;48.716;9.272;2023-08-17T13:25:57;12.15;;;6.72;;
44766;SDS011;30487;48.716;9.272;2023-08-17T13:28:23;11.82;;;6.55;;
44766;SDS011;30487;48.716;9.272;2023-08-17T13:30:48;10.43;;;6.18;;
44766;SDS011;30487;48.716;9.272;2023-08-17T13:33:14;11.80;;;6.90;;
44766;SDS011;30487;48.716;9.272;2023-08-17T13:35:41;8.73;;;6.15;;
44766;SDS011;30487;48.716;9.272;2023-08-17T13:38:07;10.10;;;6.20;;
44766;SDS011;30487;48.716;9.272;2023-08-17T13:40:33;10.93;;;6.10;;
44766;SDS011;30487;48.716;9.272;2023-08-17T13:43:01;10.52;;;5.35;;
44766;SDS011;30487;48.716;9.272;2023-08-17T13:45:28;7.53;;;5.70;;
44766;SDS011;30487;48.716;9.272;2023-08-17T13:47:53;7.25;;;5.50;;
44766;SDS011;30487;48.716;9.272;2023-08-17T13:50:19;8.02;;;5.47;;
44766;SDS011;30487;48.716;9.272;2023-08-17T13:52:44;7.68;;;5.55;;
44766;SDS011;30487;48.716;9.272;2023-08-17T13:55:11;8.60;;;5.28;;
44766;SDS011;30487;48.716;9.272;2023-08-17T13:57:37;7.13;;;5.05;;
44766;SDS011;30487;48.716;9.272;2023-08-17T14:00:03;8.32;;;5.40;;
44766;SDS011;30487;48.716;9.272;2023-08-17T14:02:32;7.65;;;4.93;;
44766;SDS011;30487;48.716;9.272;2023-08-17T14:04:57;8.57;;;5.40;;
44766;SDS011;30487;48.716;9.272;2023-08-17T14:07:23;11.77;;;5.13;;
44766;SDS011;30487;48.716;9.272;2023-08-17T14:09:48;9.18;;;5.20;;
44766;SDS011;30487;48.716;9.272;2023-08-17T14:12:14;7.72;;;5.05;;
44766;SDS011;30487;48.716;9.272;2023-08-17T14:14:39;11.07;;;5.07;;
44766;SDS011;30487;48.716;9.272;2023-08-17T14:17:05;9.13;;;5.03;;
44766;SDS011;30487;48.716;9.272;2023-08-17T14:19:31;11.05;;;5.30;;
44766;SDS011;30487;48.716;9.272;2023-08-17T14:21:56;6.68;;;4.57;;
44766;SDS011;30487;48.716;9.272;2023-08-17T14:24:24;9.25;;;5.15;;
44766;SDS011;30487;48.716;9.272;2023-08-17T14:26:49;10.02;;;5.32;;
44766;SDS011;30487;48.716;9.272;2023-08-17T14:29:15;10.63;;;6.28;;
44766;SDS011;30487;48.716;9.272;2023-08-17T14:31:41;8.63;;;5.25;;
44766;SDS011;30487;48.716;9.272;2023-08-17T14:34:06;10.98;;;5.72;;
44766;SDS011;30487;48.716;9.272;2023-08-17T14:36:32;9.40;;;5.20;;
44766;SDS011;30487;48.716;9.272;2023-08-17T14:38:57;13.98;;;5.55;;